Time;durP1;ratioP1;P1;durP2;ratioP2;P2;SDS_P1;SDS_P2;PMS_P1;PMS_P2;Temp;Humidity;BMP_temperature;BMP_pressure;BME280_temperature;BME280_humidity;BME280_pressure;Samples;Min_cycle;Max_cycle;Signal;HPM_P1;HPM_P2
2022/09/14 00:01:09;;;;;;;6.25;3.17;;;;;;;13.20;100.00;98238.22;4501839;31;20119;-75
2022/09/14 00:03:57;;;;;;;;;;;;;;;13.16;100.00;98242.16;4501817;31;20080;-75
2022/09/14 00:06:24;;;;;;;3.92;2.72;;;;;;;13.13;100.00;98240.66;4489806;31;19983;-75
2022/09/14 00:08:53;;;;;;;4.05;2.80;;;;;;;13.08;100.00;98236.88;4501684;31;20104;-75
2022/09/14 00:11:22;;;;;;;5.50;2.80;;;;;;;13.04;100.00;98235.59;4501906;31;20099;-75
2022/09/14 00:13:49;;;;;;;8.35;3.30;;;;;;;13.01;100.00;98249.06;4501431;31;20096;-75
2022/09/14 00:16:20;;;;;;;4.57;2.30;;;;;;;12.99;100.00;98246.63;4501453;31;20180;-75
2022/09/14 00:19:04;;;;;;;6.15;2.62;;;;;;;12.94;100.00;98251.53;4501666;31;20083;-75
2022/09/14 00:21:34;;;;;;;4.70;2.72;;;;;;;12.90;100.00;98243.16;4501616;31;20171;-75
2022/09/14 00:24:01;;;;;;;7.07;2.87;;;;;;;12.86;100.00;98236.59;4500546;31;20476;-75
2022/09/14 00:26:28;;;;;;;6.50;2.90;;;;;;;12.83;100.00;98236.09;4501468;31;20100;-75
2022/09/14 00:28:57;;;;;;;4.43;2.85;;;;;;;12.84;100.00;98232.47;4501365;31;20118;-75
2022/09/14 00:31:25;;;;;;;5.40;3.10;;;;;;;12.84;100.00;98235.94;4501199;31;20160;-75
2022/09/14 00:33:52;;;;;;;5.22;2.97;;;;;;;12.85;100.00;98229.66;4501420;31;20231;-75
2022/09/14 00:36:22;;;;;;;5.35;2.87;;;;;;;12.83;100.00;98236.91;4501369;31;20114;-75
2022/09/14 00:38:50;;;;;;;4.55;3.10;;;;;;;12.82;100.00;98235.25;4501445;31;20083;-75
2022/09/14 00:41:20;;;;;;;7.43;3.15;;;;;;;12.79;100.00;98232.97;4501429;31;20440;-75
2022/09/14 00:43:59;;;;;;;5.53;3.22;;;;;;;12.77;100.00;98241.00;4500278;31;20130;-75
2022/09/14 00:46:29;;;;;;;4.68;3.22;;;;;;;12.74;100.00;98238.72;4501441;31;20316;-75
2022/09/14 00:48:59;;;;;;;7.43;3.40;;;;;;;12.74;100.00;98230.03;4501777;31;20429;-75
2022/09/14 00:51:28;;;;;;;4.45;3.45;;;;;;;12.72;100.00;98226.75;4500093;31;20483;-75
2022/09/14 00:53:55;;;;;;;13.82;3.90;;;;;;;12.73;100.00;98217.84;4501400;31;20164;-75
2022/09/14 00:56:22;;;;;;;7.50;4.35;;;;;;;12.76;100.00;98210.47;4501059;31;20092;-75
2022/09/14 00:58:50;;;;;;;5.55;3.85;;;;;;;12.81;100.00;98215.25;4501340;31;20117;-75
2022/09/14 01:01:18;;;;;;;9.38;5.05;;;;;;;12.76;100.00;98207.00;4499893;31;20137;-75
2022/09/14 01:03:46;;;;;;;7.28;5.10;;;;;;;12.75;100.00;98208.00;4501324;31;20133;-75
2022/09/14 01:06:32;;;;;;;11.32;4.78;;;;;;;12.75;100.00;98208.81;4488094;31;20088;-75
2022/09/14 01:09:25;;;;;;;8.60;5.32;;;;;;;12.78;100.00;98211.13;4501342;31;20092;-75
2022/09/14 01:12:02;;;;;;;8.52;4.68;;;;;;;12.75;100.00;98208.00;4501495;31;20128;-75
2022/09/14 01:14:54;;;;;;;8.80;4.78;;;;;;;12.78;100.00;98203.25;4499865;31;20108;-75
2022/09/14 01:17:36;;;;;;;8.57;4.68;;;;;;;12.81;100.00;98198.62;4501084;31;20110;-75
2022/09/14 01:20:13;;;;;;;8.38;4.25;;;;;;;12.83;100.00;98200.13;4500064;31;20100;-75
2022/09/14 01:22:45;;;;;;;11.90;4.97;;;;;;;12.80;100.00;98189.94;4501464;31;20159;-75
2022/09/14 01:25:50;;;;;;;8.97;4.03;;;;;;;12.78;100.00;98195.34;4501194;31;20100;-75
2022/09/14 01:28:28;;;;;;;7.70;3.92;;;;;;;12.78;100.00;98197.97;4501106;31;20143;-75
2022/09/14 01:30:57;;;;;;;6.43;4.07;;;;;;;12.80;100.00;98197.81;4499827;31;20175;-75
2022/09/14 01:33:31;;;;;;;7.95;4.05;;;;;;;12.76;100.00;98199.12;4499626;31;20106;-75
2022/09/14 01:36:01;;;;;;;11.18;4.20;;;;;;;12.80;100.00;98189.94;4499717;31;20198;-75
2022/09/14 01:38:36;;;;;;;10.32;4.15;;;;;;;12.88;100.00;98184.66;4499704;31;20176;-75
2022/09/14 01:41:07;;;;;;;4.75;3.12;;;;;;;12.92;100.00;98188.59;4499993;31;20129;-75
2022/09/14 01:43:40;;;;;;;8.25;3.75;;;;;;;12.91;100.00;98184.34;4499717;31;20106;-75
2022/09/14 01:46:12;;;;;;;7.47;4.32;;;;;;;12.92;100.00;98179.91;4499919;31;20176;-75
2022/09/14 01:48:49;;;;;;;5.22;3.65;;;;;;;12.97;100.00;98174.94;4499893;31;20107;-75
2022/09/14 01:51:22;;;;;;;5.05;3.35;;;;;;;12.98;100.00;98170.53;4499302;31;20122;-75
2022/09/14 01:53:54;;;;;;;4.22;3.00;;;;;;;12.96;100.00;98165.44;4499603;31;20729;-75
2022/09/14 01:56:25;;;;;;;12.35;5.40;;;;;;;13.00;100.00;98155.41;4500927;31;20140;-75
2022/09/14 01:59:14;;;;;;;7.78;3.35;;;;;;;13.00;100.00;98153.56;4500787;31;20147;-75
2022/09/14 02:02:16;;;;;;;4.25;3.20;;;;;;;13.07;100.00;98145.84;4499552;31;20161;-75
2022/09/14 02:05:07;;;;;;;8.38;3.22;;;;;;;13.13;100.00;98143.38;4490457;31;20472;-75
2022/09/14 02:07:36;;;;;;;7.72;3.12;;;;;;;13.18;100.00;98137.59;4496304;31;20104;-75
2022/09/14 02:10:07;;;;;;;10.95;3.60;;;;;;;13.23;100.00;98143.19;4501097;31;20084;-75
2022/09/14 02:12:35;;;;;;;8.60;3.42;;;;;;;13.29;100.00;98136.41;4499623;31;20147;-75
2022/09/14 02:15:03;;;;;;;9.73;4.05;;;;;;;13.25;100.00;98130.66;4500656;31;20118;-75
2022/09/14 02:17:31;;;;;;;6.40;3.25;;;;;;;13.39;100.00;98120.47;4499355;31;20626;-75
2022/09/14 02:20:00;;;;;;;6.60;3.62;;;;;;;13.40;100.00;98115.03;4500804;31;20096;-75
2022/09/14 02:22:28;;;;;;;13.73;4.03;;;;;;;13.29;100.00;98113.56;4500870;31;20113;-75
2022/09/14 02:24:55;;;;;;;8.27;4.05;;;;;;;13.25;100.00;98119.34;4499277;31;20396;-75
2022/09/14 02:27:23;;;;;;;8.88;4.70;;;;;;;13.14;100.00;98109.97;4499281;31;20092;-75
2022/09/14 02:29:51;;;;;;;7.40;4.25;;;;;;;13.17;100.00;98112.31;4500407;31;20118;-75
2022/09/14 02:32:40;;;;;;;9.85;4.40;;;;;;;13.03;100.00;98110.37;4500586;31;20119;-75
2022/09/14 02:35:15;;;;;;;8.25;4.03;;;;;;;12.94;100.00;98112.19;4500608;31;20132;-75
2022/09/14 02:37:58;;;;;;;4.95;3.78;;;;;;;12.87;100.00;98117.31;4500627;31;20136;-75
2022/09/14 02:40:36;;;;;;;6.35;3.90;;;;;;;12.85;100.00;98113.19;4499375;31;20497;-75
2022/09/14 02:43:19;;;;;;;6.78;3.90;;;;;;;12.85;100.00;98119.25;4500830;31;20196;-75
2022/09/14 02:46:13;;;;;;;5.28;3.67;;;;;;;12.86;100.00;98120.91;4499476;31;20101;-75
2022/09/14 02:48:47;;;;;;;6.15;4.00;;;;;;;12.78;100.00;98113.88;4499316;31;20134;-75
2022/09/14 02:51:30;;;;;;;10.05;3.78;;;;;;;12.82;100.00;98098.56;4500650;31;20071;-75
2022/09/14 02:54:11;;;;;;;6.57;3.92;;;;;;;12.87;100.00;98096.28;4500301;31;20110;-75
2022/09/14 02:56:38;;;;;;;5.62;3.67;;;;;;;12.92;100.00;98096.59;4498904;31;20171;-75
2022/09/14 02:59:05;;;;;;;7.18;3.95;;;;;;;12.94;100.00;98099.03;4500125;31;20532;-75
2022/09/14 03:01:33;;;;;;;8.63;4.00;;;;;;;12.96;100.00;98089.19;4500237;31;20138;-75
2022/09/14 03:04:00;;;;;;;10.07;3.37;;;;;;;13.06;100.00;98081.09;4501724;31;20137;-74
2022/09/14 03:06:27;;;;;;;6.37;4.00;;;;;;;13.11;100.00;98091.91;4497999;31;20133;-75
2022/09/14 03:08:55;;;;;;;5.82;4.32;;;;;;;13.08;100.00;98093.09;4486312;31;20154;-75
2022/09/14 03:11:22;;;;;;;9.75;3.95;;;;;;;13.12;100.00;98094.38;4486465;31;20097;-75
2022/09/14 03:13:49;;;;;;;9.32;3.90;;;;;;;13.17;100.00;98099.16;4486447;31;20557;-75
2022/09/14 03:16:16;;;;;;;5.55;3.92;;;;;;;13.17;100.00;98090.41;4486221;31;20152;-75
2022/09/14 03:18:44;;;;;;;8.13;3.75;;;;;;;13.17;100.00;98085.16;4486119;32;20089;-75
2022/09/14 03:21:14;;;;;;;5.15;3.90;;;;;;;13.17;100.00;98085.16;4486360;31;20557;-75
2022/09/14 03:23:46;;;;;;;8.05;3.70;;;;;;;13.15;100.00;98087.97;4486337;31;20148;-75
2022/09/14 03:26:18;;;;;;;13.15;3.75;;;;;;;13.18;100.00;98087.63;4486315;32;20080;-75
2022/09/14 03:28:51;;;;;;;6.80;4.20;;;;;;;13.16;100.00;98089.63;4486036;31;20142;-74
2022/09/14 03:31:19;;;;;;;;;;;;;;;13.21;100.00;98075.94;4486512;31;20092;-75
2022/09/14 03:33:51;;;;;;;8.52;3.90;;;;;;;13.23;100.00;98074.78;4486071;32;19976;-75
2022/09/14 03:36:18;;;;;;;8.48;4.12;;;;;;;13.25;100.00;98074.63;4486137;31;20476;-75
2022/09/14 03:38:51;;;;;;;17.23;4.20;;;;;;;13.24;100.00;98080.87;4486349;31;20221;-75
2022/09/14 03:41:19;;;;;;;6.65;3.85;;;;;;;13.27;100.00;98083.16;4486189;31;20463;-75
2022/09/14 03:43:46;;;;;;;6.43;3.95;;;;;;;13.23;100.00;98093.22;4486007;31;20092;-75
2022/09/14 03:46:22;;;;;;;9.02;4.10;;;;;;;13.20;100.00;98083.03;4486172;31;20468;-75
2022/09/14 03:48:50;;;;;;;5.05;3.62;;;;;;;13.14;100.00;98094.22;4486103;31;20096;-75
2022/09/14 03:51:17;;;;;;;13.80;4.18;;;;;;;13.06;100.00;98089.00;4486182;31;20167;-75
2022/09/14 03:53:44;;;;;;;10.98;4.53;;;;;;;13.03;100.00;98099.84;4484846;32;20105;-75
2022/09/14 03:56:15;;;;;;;6.03;3.95;;;;;;;13.02;100.00;98091.16;4485882;31;20097;-74
2022/09/14 03:58:43;;;;;;;19.30;6.68;;;;;;;12.97;100.00;98096.06;4486032;31;20872;-74
2022/09/14 04:01:13;;;;;;;12.30;4.28;;;;;;;12.96;100.00;98100.53;4485776;31;20152;-75
2022/09/14 04:03:41;;;;;;;15.23;4.53;;;;;;;12.98;100.00;98081.13;4485525;31;20080;-75
2022/09/14 04:06:09;;;;;;;10.15;4.32;;;;;;;12.95;100.00;98085.72;4498096;31;20143;-76
2022/09/14 04:08:38;;;;;;;9.15;4.05;;;;;;;12.96;100.00;98090.00;4485852;31;20140;-76
2022/09/14 04:11:17;;;;;;;6.68;4.25;;;;;;;12.99;100.00;98088.00;4488979;31;20173;-75
2022/09/14 04:13:45;;;;;;;5.57;3.92;;;;;;;12.94;100.00;98088.53;4497149;31;20143;-76
2022/09/14 04:16:13;;;;;;;11.52;3.70;;;;;;;13.01;100.00;98084.25;4501685;31;20167;-76
2022/09/14 04:18:40;;;;;;;7.95;4.43;;;;;;;13.18;100.00;98071.03;4501681;31;20114;-75
2022/09/14 04:21:18;;;;;;;6.93;3.83;;;;;;;13.31;100.00;98071.31;4501472;31;20092;-75
2022/09/14 04:23:46;;;;;;;7.43;3.95;;;;;;;13.31;100.00;98066.84;4501755;31;20535;-75
2022/09/14 04:26:33;;;;;;;14.02;3.62;;;;;;;13.37;100.00;98068.00;4501401;31;20525;-75
2022/09/14 04:29:00;;;;;;;9.32;4.35;;;;;;;13.35;100.00;98062.09;4501418;31;20159;-75
2022/09/14 04:31:27;;;;;;;7.47;3.75;;;;;;;13.46;100.00;98060.91;4501418;31;20641;-75
2022/09/14 04:33:55;;;;;;;7.00;4.00;;;;;;;13.43;100.00;98056.81;4501563;31;20087;-75
2022/09/14 04:36:29;;;;;;;9.45;4.12;;;;;;;13.45;100.00;98056.63;4501485;31;20080;-75
2022/09/14 04:38:58;;;;;;;15.10;4.80;;;;;;;13.46;100.00;98056.44;4501895;31;20111;-75
2022/09/14 04:41:26;;;;;;;13.05;3.85;;;;;;;13.51;100.00;98050.66;4501609;31;20108;-75
2022/09/14 04:43:54;;;;;;;20.05;5.07;;;;;;;13.58;100.00;98053.41;4501522;31;20155;-75
2022/09/14 04:46:24;;;;;;;11.45;4.00;;;;;;;13.54;100.00;98050.31;4501282;31;20528;-75
2022/09/14 04:48:52;;;;;;;11.02;4.12;;;;;;;13.61;100.00;98046.00;4501255;31;20112;-75
2022/09/14 04:51:25;;;;;;;12.88;4.05;;;;;;;13.73;100.00;98048.22;4501262;31;20161;-76
2022/09/14 04:53:53;;;;;;;;;;;;;;;13.70;100.00;98038.88;4502021;31;20114;-75
2022/09/14 04:56:21;;;;;;;13.50;4.05;;;;;;;13.94;100.00;98032.59;4501158;31;19982;-75
2022/09/14 04:58:51;;;;;;;14.27;4.32;;;;;;;13.84;100.00;98032.03;4500536;31;20118;-75
2022/09/14 05:01:22;;;;;;;16.17;4.10;;;;;;;13.92;100.00;98028.53;4493970;31;20123;-76
2022/09/14 05:03:50;;;;;;;12.13;4.12;;;;;;;13.91;100.00;98035.56;4496642;31;20122;-76
2022/09/14 05:06:26;;;;;;;11.23;3.40;;;;;;;14.15;100.00;98041.66;4495754;31;20079;-75
2022/09/14 05:08:54;;;;;;;5.40;3.80;;;;;;;14.22;100.00;98037.31;4485234;31;20112;-76
2022/09/14 05:11:23;;;;;;;10.15;3.58;;;;;;;14.20;100.00;98049.81;4495327;31;20097;-76
2022/09/14 05:13:50;;;;;;;14.18;3.62;;;;;;;14.30;100.00;98054.88;4495663;31;20088;-76
2022/09/14 05:16:19;;;;;;;17.52;5.55;;;;;;;14.37;100.00;98064.50;4490153;31;20167;-76
2022/09/14 05:18:47;;;;;;;16.98;4.50;;;;;;;14.43;100.00;98059.50;4493781;31;20100;-75
2022/09/14 05:21:17;;;;;;;7.40;4.28;;;;;;;14.57;100.00;98052.66;4491285;31;20568;-75
2022/09/14 05:23:46;;;;;;;17.27;3.78;;;;;;;14.60;100.00;98053.09;4490610;31;20122;-76
2022/09/14 05:26:13;;;;;;;24.95;4.93;;;;;;;14.60;100.00;98058.34;4490295;31;20393;-76
2022/09/14 05:28:40;;;;;;;17.92;4.00;;;;;;;14.72;100.00;98041.13;4489558;31;20108;-76
2022/09/14 05:31:10;;;;;;;12.85;4.07;;;;;;;14.87;98.93;98027.94;4491205;31;20139;-75
2022/09/14 05:33:37;;;;;;;22.95;5.60;;;;;;;15.01;98.79;98015.72;4496146;31;20200;-76
2022/09/14 05:36:06;;;;;;;28.62;4.50;;;;;;;14.97;98.86;98035.56;4495627;31;20148;-76
2022/09/14 05:38:36;;;;;;;27.77;5.32;;;;;;;15.00;99.47;98039.66;4494809;31;20159;-77
2022/09/14 05:41:05;;;;;;;40.17;5.80;;;;;;;15.01;98.25;98033.41;4495003;31;20083;-76
2022/09/14 05:43:32;;;;;;;16.55;4.62;;;;;;;15.07;98.11;98032.66;4489186;31;20248;-76
2022/09/14 05:46:01;;;;;;;59.00;6.30;;;;;;;15.12;96.54;98034.75;4496074;31;20099;-77
2022/09/14 05:48:38;;;;;;;39.85;5.80;;;;;;;15.12;95.81;98043.47;4494618;31;20822;-76
2022/09/14 05:51:13;;;;;;;58.80;6.90;;;;;;;15.28;96.27;98045.09;4494991;31;20610;-77
2022/09/14 05:53:41;;;;;;;29.30;4.72;;;;;;;15.27;95.55;98052.16;4490423;31;20122;-76
2022/09/14 05:56:11;;;;;;;35.65;5.15;;;;;;;15.36;95.55;98052.06;4490496;31;20120;-76
2022/09/14 05:58:39;;;;;;;23.25;5.80;;;;;;;15.54;95.54;98047.19;4485504;31;20601;-76
2022/09/14 06:01:23;;;;;;;15.15;4.18;;;;;;;15.70;93.77;98042.69;4498243;31;20123;-76
2022/09/14 06:03:55;;;;;;;8.55;4.07;;;;;;;15.66;94.89;98049.37;4496202;31;20500;-75
2022/09/14 06:06:23;;;;;;;9.30;3.95;;;;;;;15.82;93.57;98046.50;4490812;31;81495;-75
2022/09/14 06:08:52;;;;;;;19.73;4.43;;;;;;;15.79;91.09;98050.34;4496526;31;20096;-76
2022/09/14 06:11:23;;;;;;;36.00;5.00;;;;;;;15.70;92.60;98035.59;4499813;31;20127;-76
2022/09/14 06:13:50;;;;;;;14.68;4.10;;;;;;;15.70;92.72;98030.31;4489955;31;20091;-75
2022/09/14 06:16:19;;;;;;;17.65;4.43;;;;;;;15.65;93.06;98019.47;4495555;31;20164;-75
2022/09/14 06:18:47;;;;;;;12.37;4.22;;;;;;;15.94;92.72;98018.59;4499403;31;20164;-76
2022/09/14 06:21:18;;;;;;;23.25;4.37;;;;;;;15.99;91.62;98033.84;4499499;31;20152;-76
2022/09/14 06:23:46;;;;;;;16.42;4.15;;;;;;;15.94;91.19;98030.94;4495285;31;20106;-76
2022/09/14 06:26:14;;;;;;;20.37;4.32;;;;;;;16.10;92.09;98037.81;4494898;31;20108;-75
2022/09/14 06:28:41;;;;;;;17.85;4.50;;;;;;;16.12;90.69;98047.19;4498419;31;20104;-75
2022/09/14 06:31:11;;;;;;;24.45;4.65;;;;;;;16.21;89.96;98047.03;4499140;31;20928;-75
2022/09/14 06:33:45;;;;;;;6.93;3.85;;;;;;;16.38;89.92;98051.06;4498486;31;20203;-75
2022/09/14 06:36:23;;;;;;;14.55;3.85;;;;;;;16.65;89.66;98056.50;4495435;31;20109;-76
2022/09/14 06:38:51;;;;;;;13.52;4.18;;;;;;;16.63;88.69;98077.84;4494041;31;20208;-75
2022/09/14 06:41:20;;;;;;;10.68;3.90;;;;;;;16.60;88.06;98074.78;4489768;31;20204;-74
2022/09/14 06:43:48;;;;;;;9.27;3.67;;;;;;;16.63;88.55;98077.84;4488665;31;20178;-76
2022/09/14 06:46:18;;;;;;;16.45;3.90;;;;;;;16.56;88.52;98082.28;4498580;31;20406;-74
2022/09/14 06:48:54;;;;;;;19.65;4.28;;;;;;;16.36;90.12;98082.13;4500186;31;20108;-77
2022/09/14 06:51:26;;;;;;;29.98;4.97;;;;;;;16.24;90.80;98081.00;4497948;31;20142;-76
2022/09/14 06:53:55;;;;;;;19.55;5.00;;;;;;;16.10;92.77;98072.16;4498405;31;20114;-78
2022/09/14 06:56:23;;;;;;;23.62;5.57;;;;;;;16.13;94.83;98062.00;4497664;31;20080;-78
2022/09/14 06:58:51;;;;;;;10.48;4.25;;;;;;;16.09;97.81;98065.22;4498822;31;20179;-74
2022/09/14 07:01:20;;;;;;;12.23;4.43;;;;;;;16.22;96.75;98053.97;4497411;31;20153;-77
2022/09/14 07:03:48;;;;;;;10.00;4.55;;;;;;;16.36;97.72;98047.75;4484698;31;20122;-77
2022/09/14 07:06:23;;;;;;;6.57;4.10;;;;;;;16.39;99.86;98042.09;4492509;31;20105;-74
2022/09/14 07:08:52;;;;;;;6.32;3.67;;;;;;;16.45;100.00;98040.50;4491510;31;20554;-78
2022/09/14 07:11:22;;;;;;;11.55;4.80;;;;;;;16.35;100.00;98035.56;4497175;31;20095;-77
2022/09/14 07:13:49;;;;;;;9.60;4.45;;;;;;;16.19;100.00;98051.72;4497005;31;20512;-78
2022/09/14 07:16:16;;;;;;;8.45;4.25;;;;;;;16.30;100.00;98062.56;4499153;31;20100;-77
2022/09/14 07:18:43;;;;;;;8.48;4.72;;;;;;;16.30;100.00;98062.56;4497037;31;20474;-78
2022/09/14 07:21:16;;;;;;;7.10;4.30;;;;;;;16.24;100.00;98063.31;4496594;31;20143;-76
2022/09/14 07:23:45;;;;;;;10.40;5.22;;;;;;;16.23;100.00;98068.78;4499831;31;20757;-79
2022/09/14 07:26:17;;;;;;;14.05;4.85;;;;;;;16.26;100.00;98071.91;4498537;31;20877;-76
2022/09/14 07:28:48;;;;;;;12.87;4.67;;;;;;;16.32;100.00;98070.28;4498246;31;20115;-76
2022/09/14 07:31:20;;;;;;;12.48;4.25;;;;;;;16.44;100.00;98060.00;4493413;31;20111;-78
2022/09/14 07:33:50;;;;;;;15.60;5.22;;;;;;;16.65;100.00;98069.72;4490206;31;20088;-77
2022/09/14 07:36:17;;;;;;;8.50;4.35;;;;;;;16.93;100.00;98059.16;4498556;31;20091;-77
2022/09/14 07:38:44;;;;;;;8.43;4.37;;;;;;;17.29;100.00;98050.16;4499357;31;20437;-77
2022/09/14 07:41:20;;;;;;;5.80;4.15;;;;;;;17.54;100.00;98054.91;4493149;31;20115;-78
2022/09/14 07:43:49;;;;;;;8.55;4.37;;;;;;;17.71;99.90;98056.19;4496634;31;20096;-77
2022/09/14 07:46:16;;;;;;;12.23;5.35;;;;;;;17.65;100.00;98049.03;4495340;31;20118;-77
2022/09/14 07:48:43;;;;;;;8.88;3.87;;;;;;;17.69;100.00;98046.81;4498474;31;20151;-75
2022/09/14 07:51:10;;;;;;;8.82;4.85;;;;;;;17.66;99.06;98045.38;4499860;31;20632;-77
2022/09/14 07:53:41;;;;;;;7.55;4.03;;;;;;;17.76;100.00;98041.50;4497598;31;20139;-75
2022/09/14 07:56:10;;;;;;;5.80;4.28;;;;;;;17.76;100.00;98038.84;4499447;31;20107;-79
2022/09/14 07:58:37;;;;;;;6.55;4.18;;;;;;;17.39;100.00;98033.87;4497862;31;20599;-77
2022/09/14 08:01:13;;;;;;;6.75;4.25;;;;;;;17.34;99.48;98031.03;4497017;31;21241;-81
2022/09/14 08:03:42;;;;;;;9.07;4.82;;;;;;;17.20;98.97;98025.69;4498566;31;20119;-79
2022/09/14 08:06:12;;;;;;;10.35;4.62;;;;;;;17.30;99.62;98013.91;4493451;31;20099;-79
2022/09/14 08:08:41;;;;;;;6.82;4.05;;;;;;;17.25;100.00;98016.34;4499375;31;20096;-80
2022/09/14 08:11:12;;;;;;;9.23;4.68;;;;;;;17.12;100.00;98025.03;4498395;31;20088;-76
2022/09/14 08:13:41;;;;;;;8.35;4.50;;;;;;;16.99;100.00;98025.81;4491589;31;20119;-76
2022/09/14 08:16:09;;;;;;;6.57;4.37;;;;;;;17.08;100.00;98021.97;4495464;31;20103;-76
2022/09/14 08:18:36;;;;;;;6.47;4.20;;;;;;;17.14;100.00;98015.88;4497345;31;20190;-76
2022/09/14 08:21:11;;;;;;;12.85;4.82;;;;;;;17.19;98.26;98018.75;4500169;31;20096;-75
2022/09/14 08:23:38;;;;;;;9.13;4.62;;;;;;;17.41;96.89;98018.63;4499458;31;20233;-76
2022/09/14 08:26:08;;;;;;;11.23;4.82;;;;;;;17.57;93.90;98020.09;4499682;31;20115;-77
2022/09/14 08:28:35;;;;;;;7.12;5.25;;;;;;;17.63;96.72;98016.63;4494652;31;20100;-77
2022/09/14 08:31:03;;;;;;;9.82;5.40;;;;;;;17.66;97.94;98010.94;4494438;31;20104;-77
2022/09/14 08:33:34;;;;;;;8.52;5.22;;;;;;;17.81;96.07;98005.44;4498645;31;20131;-76
2022/09/14 08:36:02;;;;;;;9.02;4.97;;;;;;;18.17;96.31;98004.28;4496212;31;20084;-78
2022/09/14 08:38:29;;;;;;;8.45;5.03;;;;;;;18.44;94.21;98005.06;4491105;31;20123;-79
2022/09/14 08:40:58;;;;;;;8.18;5.35;;;;;;;18.75;94.26;98011.50;4482671;31;20100;-76
2022/09/14 08:43:26;;;;;;;7.72;5.15;;;;;;;19.04;92.80;98013.91;4490767;31;20527;-78
2022/09/14 08:45:59;;;;;;;7.80;5.32;;;;;;;19.15;89.43;98013.22;4481198;31;20099;-76
2022/09/14 08:48:30;;;;;;;10.70;6.53;;;;;;;18.91;92.96;98014.75;4481704;31;20097;-77
2022/09/14 08:50:57;;;;;;;8.90;4.93;;;;;;;19.42;88.74;98013.09;4497014;31;20432;-77
2022/09/14 08:53:25;;;;;;;7.93;5.47;;;;;;;19.25;89.25;98013.59;4489549;31;20133;-76
2022/09/14 08:56:01;;;;;;;12.30;5.32;;;;;;;19.02;90.53;98006.16;4492983;31;20130;-76
2022/09/14 08:58:57;;;;;;;12.57;6.30;;;;;;;19.29;89.03;98006.84;4489097;31;20100;-77
2022/09/14 09:01:43;;;;;;;10.00;4.80;;;;;;;19.27;91.40;98010.72;4484520;31;20099;-76
2022/09/14 09:04:10;;;;;;;13.43;6.10;;;;;;;19.12;89.81;98003.87;4489208;31;20104;-78
2022/09/14 09:07:11;;;;;;;13.90;5.43;;;;;;;19.57;88.90;98000.34;4498569;31;20124;-78
2022/09/14 09:09:51;;;;;;;12.52;5.55;;;;;;;19.43;89.94;98004.13;4492008;31;20123;-78
2022/09/14 09:12:23;;;;;;;12.00;5.72;;;;;;;19.46;89.87;98007.16;4492152;31;20092;-78
2022/09/14 09:14:50;;;;;;;11.15;5.85;;;;;;;19.79;89.29;98016.81;4493124;31;20123;-79
2022/09/14 09:17:26;;;;;;;7.32;4.87;;;;;;;20.12;84.60;98023.72;4493294;31;20115;-78
2022/09/14 09:20:16;;;;;;;9.93;4.97;;;;;;;20.60;84.68;98026.75;4493252;31;20583;-78
2022/09/14 09:23:11;;;;;;;13.10;4.95;;;;;;;20.63;82.50;98040.44;4489496;31;20080;-78
2022/09/14 09:25:44;;;;;;;14.18;5.07;;;;;;;20.99;81.58;98035.41;4494942;31;20142;-79
2022/09/14 09:28:11;;;;;;;;;;;;;;;21.20;81.20;98036.78;4494019;31;20072;-78
2022/09/14 09:30:40;;;;;;;8.93;5.18;;;;;;;21.31;80.53;98038.69;4490698;31;20070;-79
2022/09/14 09:33:15;;;;;;;12.37;5.20;;;;;;;21.47;80.19;98044.41;4485111;31;20143;-79
2022/09/14 09:35:43;;;;;;;7.78;4.55;;;;;;;21.64;78.60;98037.47;4495006;31;20562;-79
2022/09/14 09:38:17;;;;;;;11.60;4.68;;;;;;;21.85;78.63;98043.31;4499153;31;20406;-79
2022/09/14 09:40:48;;;;;;;8.45;4.72;;;;;;;21.87;80.53;98038.56;4492057;31;20144;-79
2022/09/14 09:43:18;;;;;;;10.27;5.40;;;;;;;21.76;79.69;98038.31;4482331;31;20116;-78
2022/09/14 09:46:06;;;;;;;11.52;5.43;;;;;;;21.80;80.79;98036.00;4490220;31;20140;-80
2022/09/14 09:48:36;;;;;;;11.50;4.97;;;;;;;21.95;76.26;98035.56;4491913;31;20088;-80
2022/09/14 09:51:15;;;;;;;7.60;4.87;;;;;;;21.84;79.92;98031.84;4486524;31;20084;-79
2022/09/14 09:53:50;;;;;;;6.85;4.37;;;;;;;22.13;78.84;98030.16;4495467;31;20122;-78
2022/09/14 09:56:27;;;;;;;7.90;4.70;;;;;;;22.44;76.23;98028.22;4495813;31;20131;-76
2022/09/14 09:58:58;;;;;;;7.93;5.20;;;;;;;22.54;74.22;98032.97;4481280;31;20119;-78
2022/09/14 10:01:34;;;;;;;12.13;5.10;;;;;;;22.42;72.40;98043.69;4496357;31;20139;-78
2022/09/14 10:04:17;;;;;;;8.52;5.57;;;;;;;22.40;77.68;98053.75;4498462;31;20445;-78
2022/09/14 10:06:54;;;;;;;10.85;5.28;;;;;;;22.20;78.04;98050.59;4495524;31;20126;-78
2022/09/14 10:09:26;;;;;;;9.00;5.07;;;;;;;22.22;76.06;98064.50;4496281;31;20122;-78
2022/09/14 10:12:03;;;;;;;11.77;6.12;;;;;;;22.71;75.87;98067.81;4489270;31;20167;-75
2022/09/14 10:14:34;;;;;;;11.23;5.47;;;;;;;22.92;73.12;98065.56;4490642;31;20113;-76
2022/09/14 10:17:18;;;;;;;8.00;4.95;;;;;;;22.97;nan;98057.69;4492279;31;20862;-77
2022/09/14 10:19:51;;;;;;;6.45;4.87;;;;;;;22.90;75.84;98054.31;4483547;31;20104;-76
2022/09/14 10:22:32;;;;;;;7.28;4.87;;;;;;;22.25;78.76;98053.38;4486408;31;20606;-78
2022/09/14 10:25:21;;;;;;;6.22;4.90;;;;;;;22.03;81.05;98051.25;4495175;31;20517;-78
2022/09/14 10:27:54;;;;;;;10.60;5.30;;;;;;;22.41;77.51;98042.03;4499329;31;20081;-77
2022/09/14 10:30:38;;;;;;;9.07;4.68;;;;;;;22.40;77.68;98035.06;4496298;31;20393;-79
2022/09/14 10:33:09;;;;;;;9.45;4.53;;;;;;;22.39;78.50;98027.28;4488444;31;20127;-76
2022/09/14 10:35:40;;;;;;;8.52;4.43;;;;;;;22.75;76.50;98026.22;4497390;31;20160;-79
2022/09/14 10:38:45;;;;;;;11.25;4.32;;;;;;;22.70;75.75;98031.47;4497093;31;20095;-78
2022/09/14 10:41:32;;;;;;;10.77;4.15;;;;;;;22.84;76.94;98038.16;4498903;31;20092;-77
2022/09/14 10:44:06;;;;;;;12.48;4.87;;;;;;;22.98;75.30;98029.91;4497994;31;20454;-77
2022/09/14 10:46:51;;;;;;;8.35;5.40;;;;;;;22.78;76.67;98039.09;4500071;31;20118;-75
2022/09/14 10:49:38;;;;;;;13.77;4.90;;;;;;;22.42;77.25;98033.00;4488726;31;20126;-75
2022/09/14 10:52:20;;;;;;;7.15;4.72;;;;;;;22.54;79.61;98037.50;4491980;31;20132;-77
2022/09/14 10:54:56;;;;;;;8.80;4.47;;;;;;;22.92;76.09;98038.84;4488678;31;20109;-79
2022/09/14 10:57:30;;;;;;;7.12;4.65;;;;;;;22.38;80.51;98042.50;4487378;31;20142;-79
2022/09/14 11:00:23;;;;;;;9.02;4.97;;;;;;;22.45;79.06;98045.03;4492996;31;20159;-78
2022/09/14 11:02:50;;;;;;;8.80;4.18;;;;;;;22.94;78.01;98048.28;4486869;31;20108;-79
2022/09/14 11:05:34;;;;;;;6.90;4.03;;;;;;;23.04;74.83;98048.50;4492743;31;20103;-79
2022/09/14 11:08:10;;;;;;;;;;;;;;;23.33;74.79;98037.03;4486949;31;20162;-79
2022/09/14 11:10:56;;;;;;;10.60;5.55;;;;;;;22.70;79.43;98036.81;4493853;31;19997;-78
2022/09/14 11:13:50;;;;;;;10.70;5.62;;;;;;;22.53;75.63;98038.53;4491319;31;20176;-77
2022/09/14 11:16:49;;;;;;;13.82;5.37;;;;;;;22.32;76.48;98024.75;4492214;31;20116;-78
2022/09/14 11:19:45;;;;;;;9.15;5.32;;;;;;;22.13;77.58;98021.31;4486290;31;20909;-77
2022/09/14 11:22:43;;;;;;;9.13;4.72;;;;;;;22.02;79.43;98022.94;4490769;31;20148;-78
2022/09/14 11:25:16;;;;;;;9.15;4.70;;;;;;;21.66;80.48;98014.03;4492010;31;20100;-78
2022/09/14 11:27:45;;;;;;;11.47;5.43;;;;;;;21.83;82.27;98024.06;4488726;31;20267;-78
2022/09/14 11:30:19;;;;;;;6.82;5.20;;;;;;;21.91;79.92;98026.41;4484219;31;20146;-78
2022/09/14 11:32:51;;;;;;;7.55;4.90;;;;;;;21.65;81.18;98028.44;4491602;31;20096;-77
2022/09/14 11:35:21;;;;;;;11.88;4.57;;;;;;;21.73;84.81;98029.97;4492159;31;20161;-79
2022/09/14 11:37:56;;;;;;;9.43;4.68;;;;;;;22.14;81.46;98018.44;4480747;32;20096;-78
2022/09/14 11:40:27;;;;;;;12.57;4.60;;;;;;;22.24;79.03;98007.19;4482258;31;20177;-78
2022/09/14 11:42:59;;;;;;;9.90;4.95;;;;;;;22.54;78.79;97992.12;4491792;31;20133;-78
2022/09/14 11:45:34;;;;;;;8.80;4.62;;;;;;;22.67;78.51;97991.88;4497919;31;20439;-78
2022/09/14 11:48:29;;;;;;;6.82;3.78;;;;;;;22.78;77.63;98001.72;4487202;31;20143;-78
2022/09/14 11:51:35;;;;;;;8.95;4.70;;;;;;;23.31;77.95;98005.19;4484688;31;20115;-78
2022/09/14 11:54:02;;;;;;;11.00;4.35;;;;;;;23.08;78.94;98005.28;4482854;32;20110;-78